»·PEaware :: N8680J KAPA-KCPR

N8680J :: KAPA-KCPR

FLIGHT INFORMATION

Flight Status: Arrived
Operator: Privately registered:
United States
More flights under this callsign
Pilot: Tyler J. (19619)
Aircraft: PIPER PA-42-1000 CHEYENNE 400
(PAY4)
More flights by this aircraft type
Origin: KAPA Centennial
United States
Destination: KCPR Natrona Co Intl
United States
More flights between these airports :: More routes between these airports
Route: BJC LAR V85 MBW
File this flight plan on PilotEdge
Remarks:
Altitude:
(Current/Filed)
16,500ft
Speed:
(Current/Filed)
270kts
Departed: 12-Jun-19 09:46 PM
Arrived: 12-Jun-19 10:38 PM
Distance/Time
Traveled:
213nm/0:52
Distance/Time
To Go:
Arrived

Flight Plot

Page will automatically refresh every two minutes.


Map Options




Map Legend


Flown Route
Filed Route
Departure Airport
Arrival Airport
Navaid (VOR, NDB)
Fix

Horizontal Profiles

Position Reports

Time Latitude Longitude Heading Altitude Ground
Speed
12-Jun-19 21:30 39.577683 -104.848681 149 5887ft 0kts
12-Jun-19 21:31 39.577683 -104.848681 149 5887ft 0kts
12-Jun-19 21:32 39.577683 -104.848681 149 5887ft 0kts
12-Jun-19 21:33 39.577683 -104.848681 149 5887ft 0kts
12-Jun-19 21:34 39.577683 -104.848681 149 5887ft 0kts
12-Jun-19 21:35 39.577683 -104.848681 149 5887ft 0kts
12-Jun-19 21:36 39.577683 -104.848681 149 5887ft 0kts
12-Jun-19 21:37 39.577683 -104.848681 149 5887ft 0kts
12-Jun-19 21:38 39.577683 -104.848681 149 5887ft 0kts
12-Jun-19 21:39 39.577683 -104.848681 149 5887ft 0kts
12-Jun-19 21:41 39.577501 -104.848780 242 5887ft 3kts
12-Jun-19 21:42 39.577370 -104.849709 276 5887ft 14kts
12-Jun-19 21:43 39.581724 -104.850260 358 5887ft 16kts
12-Jun-19 21:44 39.584037 -104.850535 285 5887ft 2kts
12-Jun-19 21:45 39.584010 -104.851416 214 5887ft 6kts
12-Jun-19 21:46 39.559807 -104.850180 173 6390ft 158kts
12-Jun-19 21:47 39.518970 -104.878529 253 7440ft 187kts
12-Jun-19 21:48 39.518803 -104.943209 268 7521ft 195kts
12-Jun-19 21:49 39.518264 -105.017319 268 7521ft 209kts
12-Jun-19 21:50 39.536521 -105.086310 306 7544ft 211kts
12-Jun-19 21:51 39.573256 -105.143726 327 8466ft 211kts
12-Jun-19 21:52 39.628160 -105.175730 336 9882ft 220kts
12-Jun-19 21:53 39.687567 -105.195694 5 11294ft 228kts
12-Jun-19 21:54 39.750473 -105.178154 10 12701ft 232kts
12-Jun-19 21:55 39.813637 -105.160064 9 14099ft 232kts
12-Jun-19 21:56 39.876741 -105.146339 5 15455ft 227kts
12-Jun-19 21:57 39.939195 -105.141328 353 16489ft 227kts
12-Jun-19 21:58 40.001185 -105.170119 333 16548ft 248kts
12-Jun-19 21:59 40.068816 -105.201171 343 16545ft 269kts
12-Jun-19 21:59 40.130342 -105.224684 337 16538ft 282kts
12-Jun-19 22:01 40.219770 -105.261899 339 16529ft 296kts
12-Jun-19 22:02 40.299755 -105.296520 341 16505ft 309kts
12-Jun-19 22:02 40.368846 -105.324680 346 16501ft 314kts
12-Jun-19 22:04 40.466138 -105.362662 337 16485ft 312kts
12-Jun-19 22:05 40.544605 -105.405087 347 16483ft 302kts
12-Jun-19 22:05 40.612053 -105.429687 349 16484ft 300kts
12-Jun-19 22:06 40.692063 -105.459402 347 16479ft 297kts
12-Jun-19 22:07 40.771184 -105.492011 346 16481ft 298kts
12-Jun-19 22:08 40.851747 -105.524632 346 16491ft 305kts
12-Jun-19 22:09 40.933319 -105.557278 346 16491ft 308kts
12-Jun-19 22:10 41.017054 -105.588187 343 16504ft 314kts
12-Jun-19 22:11 41.098286 -105.624527 340 16502ft 316kts
12-Jun-19 22:12 41.182505 -105.656702 342 16511ft 312kts
12-Jun-19 22:13 41.266054 -105.684848 342 16511ft 307kts
12-Jun-19 22:14 41.348458 -105.713135 336 16510ft 303kts
12-Jun-19 22:15 41.421429 -105.766534 324 16512ft 297kts
12-Jun-19 22:16 41.498937 -105.805973 347 16501ft 306kts
12-Jun-19 22:17 41.583903 -105.825242 341 16504ft 310kts
12-Jun-19 22:18 41.665070 -105.863090 339 16501ft 309kts
12-Jun-19 22:19 41.745376 -105.908745 336 16480ft 315kts
12-Jun-19 22:20 41.826809 -105.953901 346 15468ft 314kts
12-Jun-19 22:21 41.908001 -105.994705 339 13968ft 310kts
12-Jun-19 22:22 41.986871 -106.038774 339 12471ft 301kts
12-Jun-19 22:23 42.063218 -106.078038 342 10969ft 288kts
12-Jun-19 22:24 42.135301 -106.111794 342 10435ft 257kts
12-Jun-19 22:25 42.200155 -106.142393 342 10432ft 241kts
12-Jun-19 22:26 42.268160 -106.174485 342 10432ft 271kts
12-Jun-19 22:27 42.342301 -106.199372 349 10427ft 277kts
12-Jun-19 22:28 42.417251 -106.225436 345 10416ft 279kts
12-Jun-19 22:29 42.490650 -106.259227 339 10464ft 278kts
12-Jun-19 22:30 42.561764 -106.300423 338 10485ft 278kts
12-Jun-19 22:31 42.633408 -106.342723 338 10017ft 286kts
12-Jun-19 22:32 42.703937 -106.385432 337 9453ft 257kts
12-Jun-19 22:33 42.765906 -106.427005 334 8380ft 248kts
12-Jun-19 22:34 42.820753 -106.465657 336 6995ft 190kts
12-Jun-19 22:35 42.862230 -106.493726 337 6078ft 163kts
12-Jun-19 22:36 42.892903 -106.475715 40 5392ft 123kts
12-Jun-19 22:37 42.901763 -106.462571 148 5351ft 4kts
12-Jun-19 22:38 42.900835 -106.463047 222 5351ft 17kts
12-Jun-19 22:39 42.898279 -106.464114 196 5351ft 0kts
12-Jun-19 22:40 42.898278 -106.464115 196 5351ft 0kts

Navigation Log

Ident Type
Flight plan parsing failed, navigation log unavailable